Time;durP1;ratioP1;P1;durP2;ratioP2;P2;SDS_P1;SDS_P2;PMS_P1;PMS_P2;Temp;Humidity;BMP_temperature;BMP_pressure;BME280_temperature;BME280_humidity;BME280_pressure;Samples;Min_cycle;Max_cycle;Signal;HPM_P1;HPM_P2
2022/03/13 00:01:01;;;;;;;11.05;5.32;;;;;;;1.47;47.19;101296.16;6026539;28;20034;-73
2022/03/13 00:03:57;;;;;;;12.50;4.97;;;;;;;1.36;47.02;101298.44;6028988;28;20018;-73
2022/03/13 00:06:52;;;;;;;16.00;4.60;;;;;;;1.30;47.32;101304.81;6051276;28;20033;-71
2022/03/13 00:09:51;;;;;;;9.77;4.38;;;;;;;1.24;47.29;101299.88;6039844;28;20100;-72
2022/03/13 00:12:48;;;;;;;16.42;5.32;;;;;;;1.20;47.82;101299.16;6026144;28;20122;-71
2022/03/13 00:15:44;;;;;;;10.05;5.03;;;;;;;1.19;46.93;101287.03;6032771;28;20038;-73
2022/03/13 00:18:46;;;;;;;14.95;5.18;;;;;;;1.27;47.42;101297.09;6027662;28;20430;-69
2022/03/13 00:21:45;;;;;;;11.35;5.03;;;;;;;1.28;47.13;101290.13;6026415;28;20027;-72
2022/03/13 00:24:40;;;;;;;12.48;4.95;;;;;;;1.28;47.53;101284.91;6025468;28;20030;-71
2022/03/13 00:27:36;;;;;;;11.67;4.97;;;;;;;1.18;47.86;101287.94;6019269;28;20040;-71
2022/03/13 00:30:31;;;;;;;11.80;5.85;;;;;;;1.19;47.68;101292.25;6021055;28;20058;-70
2022/03/13 00:33:28;;;;;;;11.63;5.27;;;;;;;1.14;47.81;101293.38;6027051;28;20030;-70
2022/03/13 00:36:24;;;;;;;12.65;4.85;;;;;;;1.08;48.10;101288.44;6025849;28;20054;-71
2022/03/13 00:39:19;;;;;;;13.85;5.28;;;;;;;1.02;48.34;101289.56;6050597;28;20034;-69
2022/03/13 00:42:15;;;;;;;11.50;4.47;;;;;;;0.94;48.49;101286.47;6037090;28;20045;-71
2022/03/13 00:45:10;;;;;;;9.98;3.42;;;;;;;0.91;48.94;101278.78;6033952;28;20281;-71
2022/03/13 00:48:07;;;;;;;11.23;4.90;;;;;;;0.86;49.03;101282.53;6026486;28;20081;-69
2022/03/13 00:51:03;;;;;;;11.27;4.72;;;;;;;0.74;49.63;101278.69;6024709;28;20528;-70
2022/03/13 00:53:58;;;;;;;9.68;4.30;;;;;;;0.74;49.61;101281.31;6026275;28;20105;-71
2022/03/13 00:56:54;;;;;;;15.80;4.85;;;;;;;0.72;49.67;101275.31;6026069;28;20038;-72
2022/03/13 00:59:49;;;;;;;13.50;5.20;;;;;;;0.60;49.91;101275.88;6022786;28;20036;-72
2022/03/13 01:02:44;;;;;;;13.60;4.70;;;;;;;0.60;50.12;101265.44;6024944;28;20277;-72
2022/03/13 01:05:40;;;;;;;13.23;4.40;;;;;;;0.56;49.74;101266.50;6028166;28;20067;-73
2022/03/13 01:08:35;;;;;;;14.17;4.70;;;;;;;0.53;49.89;101269.25;6035732;28;20034;-73
2022/03/13 01:11:31;;;;;;;15.18;4.50;;;;;;;0.52;49.68;101262.31;6034431;28;20026;-72
2022/03/13 01:14:28;;;;;;;11.50;4.33;;;;;;;0.39;50.63;101267.25;6028324;28;20040;-72
2022/03/13 01:17:24;;;;;;;12.57;4.53;;;;;;;0.30;50.75;101266.81;6025067;28;20339;-73
2022/03/13 01:20:21;;;;;;;10.68;4.72;;;;;;;0.23;50.91;101270.59;6024904;28;20100;-72
2022/03/13 01:23:17;;;;;;;10.05;4.57;;;;;;;0.20;51.13;101275.94;6026232;28;20461;-71
2022/03/13 01:26:21;;;;;;;12.18;5.10;;;;;;;0.14;51.42;101273.59;6025546;28;20033;-72
2022/03/13 01:29:17;;;;;;;11.10;4.45;;;;;;;0.02;51.54;101268.94;6026210;28;20405;-73
2022/03/13 01:32:13;;;;;;;12.93;4.38;;;;;;;0.05;51.47;101266.19;6032015;28;20041;-72
2022/03/13 01:35:09;;;;;;;14.35;5.25;;;;;;;0.09;51.40;101265.13;6037417;28;20058;-73
2022/03/13 01:38:04;;;;;;;8.98;3.90;;;;;;;0.04;51.81;101256.66;6041057;28;20026;-70
2022/03/13 01:40:59;;;;;;;11.73;4.73;;;;;;;0.08;52.27;101250.41;6037417;28;20030;-69
2022/03/13 01:43:58;;;;;;;11.32;4.50;;;;;;;-0.04;52.13;101251.78;6032098;28;20455;-73
2022/03/13 01:46:55;;;;;;;12.88;4.07;;;;;;;-0.06;52.15;101259.69;6031730;28;20101;-71
2022/03/13 01:49:51;;;;;;;10.23;4.85;;;;;;;-0.06;52.54;101257.06;6025130;28;20026;-73
2022/03/13 01:52:48;;;;;;;9.43;4.20;;;;;;;-0.01;52.10;101252.50;6024921;28;20034;-73
2022/03/13 01:55:43;;;;;;;12.48;4.22;;;;;;;-0.02;51.84;101256.03;6027377;28;20375;-72
2022/03/13 01:58:38;;;;;;;14.50;5.32;;;;;;;-0.06;51.58;101237.97;6025594;28;20034;-73
2022/03/13 02:01:35;;;;;;;13.90;5.00;;;;;;;-0.07;51.95;101238.88;6024127;28;20389;-70
2022/03/13 02:04:31;;;;;;;11.00;4.82;;;;;;;-0.10;52.21;101244.22;6024888;28;20377;-73
2022/03/13 02:07:28;;;;;;;12.90;4.30;;;;;;;-0.11;51.98;101240.75;6041094;28;20038;-70
2022/03/13 02:10:23;;;;;;;13.77;5.35;;;;;;;-0.17;52.30;101241.06;6018972;28;20030;-70
2022/03/13 02:13:19;;;;;;;9.83;4.43;;;;;;;-0.21;52.58;101246.44;6040658;28;20022;-71
2022/03/13 02:16:16;;;;;;;13.27;5.57;;;;;;;-0.12;52.49;101239.09;6029830;28;20101;-71
2022/03/13 02:19:11;;;;;;;10.38;4.25;;;;;;;-0.19;52.11;101231.59;6050664;28;20030;-72
2022/03/13 02:22:07;;;;;;;8.60;4.33;;;;;;;-0.25;52.51;101232.72;6047048;28;20117;-71
2022/03/13 02:25:02;;;;;;;10.85;5.57;;;;;;;-0.10;52.34;101231.19;6028682;28;20355;-70
2022/03/13 02:27:58;;;;;;;11.45;4.28;;;;;;;-0.02;51.67;101242.13;6029027;28;20062;-71
2022/03/13 02:30:58;;;;;;;11.35;4.20;;;;;;;-0.12;52.35;101233.88;6029018;28;20038;-73
2022/03/13 02:33:54;;;;;;;11.20;5.03;;;;;;;-0.17;52.33;101233.22;6036668;28;20044;-70
2022/03/13 02:36:50;;;;;;;13.98;4.95;;;;;;;-0.10;52.50;101233.78;6044380;28;20355;-71
2022/03/13 02:39:45;;;;;;;17.30;4.70;;;;;;;-0.17;52.66;101228.03;6028955;28;20033;-71
2022/03/13 02:42:40;;;;;;;13.17;4.80;;;;;;;-0.29;53.16;101227.69;6027924;28;20184;-69
2022/03/13 02:45:37;;;;;;;11.60;4.37;;;;;;;-0.36;53.75;101214.09;6028772;28;20026;-70
2022/03/13 02:48:33;;;;;;;16.23;5.28;;;;;;;-0.40;53.63;101230.72;6032150;28;20026;-72
2022/03/13 02:51:28;;;;;;;8.97;4.87;;;;;;;-0.46;54.12;101223.16;6030357;28;20044;-72
2022/03/13 02:54:23;;;;;;;8.33;4.10;;;;;;;-0.53;53.87;101207.88;6028958;28;20366;-69
2022/03/13 02:57:19;;;;;;;13.77;4.70;;;;;;;-0.56;54.39;101201.03;6029626;28;20034;-72
2022/03/13 03:00:17;;;;;;;12.43;5.10;;;;;;;-0.55;54.09;101197.53;6051784;28;20660;-72
2022/03/13 03:03:14;;;;;;;14.07;4.43;;;;;;;-0.55;54.22;101207.94;6033698;28;20089;-72
2022/03/13 03:06:14;;;;;;;10.65;4.68;;;;;;;-0.55;54.13;101204.50;6028374;28;20026;-70
2022/03/13 03:09:09;;;;;;;9.82;3.97;;;;;;;-0.66;54.45;101203.19;6028689;28;20022;-71
2022/03/13 03:12:06;;;;;;;10.87;4.13;;;;;;;-0.63;54.17;101217.84;6034558;28;20466;-71
2022/03/13 03:15:01;;;;;;;11.00;4.65;;;;;;;-0.68;54.44;101218.00;6035766;28;20466;-70
2022/03/13 03:17:57;;;;;;;15.30;3.87;;;;;;;-0.78;54.85;101210.63;6038323;28;20044;-69
2022/03/13 03:20:52;;;;;;;11.47;4.50;;;;;;;-0.77;54.72;101214.94;6051355;28;20034;-73
2022/03/13 03:23:48;;;;;;;12.23;4.30;;;;;;;-0.57;54.65;101225.38;6029580;28;20038;-70
2022/03/13 03:26:43;;;;;;;10.43;4.27;;;;;;;-0.70;54.52;101218.97;6030134;28;20492;-70
2022/03/13 03:29:38;;;;;;;8.18;3.42;;;;;;;-0.72;54.98;101218.19;6051922;28;20075;-72
2022/03/13 03:32:34;;;;;;;8.47;3.87;;;;;;;-0.82;54.62;101214.28;6039708;28;20041;-71
2022/03/13 03:35:30;;;;;;;12.53;4.80;;;;;;;-0.79;53.73;101211.56;6028172;28;20057;-71
2022/03/13 03:38:25;;;;;;;12.60;4.85;;;;;;;-0.85;54.13;101220.47;6027671;28;20482;-73
2022/03/13 03:41:20;;;;;;;12.63;4.30;;;;;;;-0.96;54.14;101224.38;6027134;28;20112;-71
2022/03/13 03:44:16;;;;;;;9.93;4.53;;;;;;;-1.01;53.98;101208.97;6035143;28;20035;-73
2022/03/13 03:47:12;;;;;;;11.70;4.15;;;;;;;-0.86;54.22;101217.91;6027646;28;20047;-73
2022/03/13 03:50:07;;;;;;;11.17;4.77;;;;;;;-0.96;54.12;101209.63;6026501;28;20096;-71
2022/03/13 03:53:03;;;;;;;11.95;5.43;;;;;;;-0.92;54.50;101215.53;6027663;28;20081;-72
2022/03/13 03:55:58;;;;;;;12.60;4.57;;;;;;;-0.89;54.50;101215.41;6027891;28;20030;-74
2022/03/13 03:58:53;;;;;;;10.80;4.17;;;;;;;-0.90;54.13;101222.41;6027066;28;20284;-71
2022/03/13 04:01:49;;;;;;;12.07;4.53;;;;;;;-0.86;54.22;101212.69;6026490;28;20277;-72
2022/03/13 04:04:44;;;;;;;13.27;5.77;;;;;;;-0.84;54.07;101221.28;6026926;28;20513;-72
2022/03/13 04:07:39;;;;;;;12.50;4.33;;;;;;;-0.74;53.81;101223.47;6032254;28;20298;-71
2022/03/13 04:10:35;;;;;;;14.07;3.97;;;;;;;-0.83;53.56;101217.78;6050262;28;20269;-70
2022/03/13 04:13:30;;;;;;;13.63;5.27;;;;;;;-0.83;53.73;101221.25;6037187;28;20034;-70
2022/03/13 04:16:26;;;;;;;12.30;5.20;;;;;;;-0.88;53.93;101217.13;6035405;28;20368;-71
2022/03/13 04:23:12;;;;;;;10.43;4.40;;;;;;;-1.11;54.55;101222.41;6025086;28;20462;-71
2022/03/13 04:26:08;;;;;;;9.37;4.60;;;;;;;-1.09;54.66;101218.84;6025761;28;20035;-72
2022/03/13 04:29:03;;;;;;;11.80;5.17;;;;;;;-1.08;54.53;101217.06;6026757;28;20114;-72
2022/03/13 04:31:59;;;;;;;12.38;4.78;;;;;;;-0.87;53.66;101226.63;6025710;28;20034;-73
2022/03/13 04:34:54;;;;;;;8.33;4.37;;;;;;;-0.84;52.95;101222.13;6026881;28;20022;-73
2022/03/13 04:37:50;;;;;;;7.17;3.37;;;;;;;-0.82;52.89;101216.88;6025286;28;20053;-73
2022/03/13 04:40:46;;;;;;;9.30;3.75;;;;;;;-0.82;52.78;101209.94;6025667;28;20066;-70
2022/03/13 04:43:42;;;;;;;10.85;4.65;;;;;;;-0.82;52.87;101217.75;6027250;28;20038;-74
2022/03/13 04:46:37;;;;;;;12.45;5.20;;;;;;;-0.75;52.56;101215.72;6025845;28;20065;-72
2022/03/13 04:49:33;;;;;;;12.00;3.90;;;;;;;-0.75;52.34;101210.50;6026672;28;20040;-70
2022/03/13 04:52:28;;;;;;;12.95;4.65;;;;;;;-0.89;52.72;101210.22;6024701;28;20038;-71
2022/03/13 04:55:23;;;;;;;10.97;4.17;;;;;;;-0.98;53.33;101221.84;6026679;28;20037;-71
2022/03/13 04:58:19;;;;;;;12.23;4.60;;;;;;;-1.05;53.63;101215.19;6032150;28;20023;-71
2022/03/13 05:01:14;;;;;;;13.30;4.80;;;;;;;-1.06;53.79;101220.47;6025686;28;20034;-73
2022/03/13 05:04:09;;;;;;;11.27;5.30;;;;;;;-1.06;53.77;101223.88;6026339;28;20022;-73
2022/03/13 05:07:06;;;;;;;11.87;4.70;;;;;;;-1.16;54.30;101224.31;6033584;28;20466;-70
2022/03/13 05:10:02;;;;;;;12.25;5.70;;;;;;;-1.13;54.38;101219.00;6025739;28;20022;-73
2022/03/13 05:12:57;;;;;;;11.55;4.35;;;;;;;-1.25;54.31;101213.34;6026070;28;20483;-71
2022/03/13 05:15:53;;;;;;;16.27;3.90;;;;;;;-1.33;55.32;101223.22;6041697;28;20026;-72
2022/03/13 05:18:48;;;;;;;13.52;4.75;;;;;;;-1.41;55.53;101224.41;6029516;28;20572;-74
2022/03/13 05:21:43;;;;;;;12.83;5.23;;;;;;;-1.51;56.43;101221.31;6049011;28;20459;-74
2022/03/13 05:24:39;;;;;;;13.80;4.97;;;;;;;-1.51;56.67;101225.66;6033986;28;20089;-72
2022/03/13 05:27:34;;;;;;;9.53;3.80;;;;;;;-1.64;56.90;101219.22;6025586;28;20030;-73
2022/03/13 05:30:29;;;;;;;13.97;4.67;;;;;;;-1.53;56.85;101223.13;6024897;28;20377;-71
2022/03/13 05:33:25;;;;;;;11.43;4.87;;;;;;;-1.57;57.07;101218.94;6026082;28;20026;-70
2022/03/13 05:36:20;;;;;;;14.70;5.03;;;;;;;-1.56;56.42;101225.84;6025740;28;20037;-73
2022/03/13 05:39:15;;;;;;;12.27;4.03;;;;;;;-1.60;56.49;101229.44;6024954;28;20470;-71
2022/03/13 05:42:11;;;;;;;12.33;4.70;;;;;;;-1.62;56.50;101218.25;6025261;28;20085;-72
2022/03/13 05:45:09;;;;;;;12.13;4.40;;;;;;;-1.55;56.31;101237.91;6045829;28;20026;-72
2022/03/13 05:48:10;;;;;;;12.60;4.97;;;;;;;-1.59;56.24;101238.94;6032550;28;20100;-69
2022/03/13 05:51:05;;;;;;;10.43;3.72;;;;;;;-1.61;56.30;101227.78;6029317;28;20466;-73
2022/03/13 05:54:02;;;;;;;10.95;4.80;;;;;;;-1.57;56.52;101229.34;6029897;28;20061;-73
2022/03/13 05:57:03;;;;;;;13.85;4.88;;;;;;;-1.56;56.35;101230.19;6027932;28;20161;-70
2022/03/13 05:59:58;;;;;;;10.48;4.65;;;;;;;-1.55;55.86;101232.72;6030094;28;20058;-72
2022/03/13 06:02:54;;;;;;;11.87;5.10;;;;;;;-1.53;56.01;101228.34;6029754;28;20041;-72
2022/03/13 06:05:49;;;;;;;8.82;4.32;;;;;;;-1.44;55.97;101233.16;6029949;28;20101;-74
2022/03/13 06:08:44;;;;;;;14.18;5.68;;;;;;;-1.36;55.70;101236.31;6029502;28;20026;-70
2022/03/13 06:11:39;;;;;;;11.30;4.80;;;;;;;-1.28;55.54;101238.66;6029519;28;20038;-73
2022/03/13 06:14:35;;;;;;;15.17;5.67;;;;;;;-1.23;55.50;101242.78;6031643;28;20061;-70
2022/03/13 06:17:31;;;;;;;14.17;4.17;;;;;;;-1.29;56.16;101236.94;6041492;28;20045;-70
2022/03/13 06:20:26;;;;;;;9.55;4.22;;;;;;;-1.27;55.61;101243.78;6046822;28;20473;-71
2022/03/13 06:23:22;;;;;;;11.23;4.73;;;;;;;-1.04;55.38;101239.47;6038517;28;20034;-70
2022/03/13 06:26:18;;;;;;;10.48;4.10;;;;;;;-0.83;54.78;101234.25;6029292;28;20490;-69
2022/03/13 06:29:14;;;;;;;8.48;4.13;;;;;;;-0.54;53.29;101230.47;6038219;28;20033;-71
2022/03/13 06:32:09;;;;;;;12.23;4.05;;;;;;;-0.50;53.64;101229.44;6043014;28;20049;-71
2022/03/13 06:35:04;;;;;;;16.97;4.00;;;;;;;-0.32;52.81;101231.25;6032958;28;20027;-71
2022/03/13 06:38:00;;;;;;;12.73;4.88;;;;;;;-0.23;52.62;101236.09;6023696;28;20030;-71
2022/03/13 06:40:55;;;;;;;9.70;4.37;;;;;;;-0.13;52.35;101224.34;6022659;28;20117;-72
2022/03/13 06:43:51;;;;;;;9.37;3.97;;;;;;;-0.03;51.30;101238.69;6029453;28;20262;-69
2022/03/13 06:46:46;;;;;;;13.40;4.80;;;;;;;0.08;51.12;101242.59;6028973;28;20026;-70
2022/03/13 06:49:41;;;;;;;8.80;4.03;;;;;;;0.29;51.11;101239.91;6029017;28;20089;-70
2022/03/13 06:52:37;;;;;;;11.40;4.90;;;;;;;0.35;50.04;101238.78;6028388;28;20434;-70
2022/03/13 06:55:32;;;;;;;12.95;5.55;;;;;;;0.51;49.88;101242.38;6029066;28;20053;-72
2022/03/13 06:58:28;;;;;;;12.10;4.80;;;;;;;0.66;49.26;101239.06;6027471;28;20041;-70
2022/03/13 07:01:23;;;;;;;12.38;4.50;;;;;;;0.77;49.24;101234.19;6028101;28;20462;-71
2022/03/13 07:04:18;;;;;;;9.52;5.25;;;;;;;0.83;48.79;101236.53;6028300;28;20373;-71
2022/03/13 07:07:14;;;;;;;11.43;4.83;;;;;;;0.90;48.39;101231.84;6028637;28;20037;-71
2022/03/13 07:10:12;;;;;;;11.93;4.07;;;;;;;1.08;48.58;101237.06;6028095;28;20029;-72
2022/03/13 07:13:08;;;;;;;16.98;5.80;;;;;;;1.18;48.18;101233.09;6028998;28;20030;-72
2022/03/13 07:16:03;;;;;;;11.05;4.57;;;;;;;1.34;48.48;101240.19;6036503;28;20492;-71
2022/03/13 07:18:59;;;;;;;9.85;5.00;;;;;;;1.37;47.93;101246.09;6016766;28;20109;-73
2022/03/13 07:21:54;;;;;;;9.77;3.73;;;;;;;1.37;47.47;101247.88;6028564;28;20412;-72
2022/03/13 07:24:49;;;;;;;11.27;4.80;;;;;;;1.62;47.62;101246.59;6028043;28;20061;-71
2022/03/13 07:27:45;;;;;;;8.70;4.87;;;;;;;1.73;47.06;101238.22;6027694;28;20038;-74
2022/03/13 07:30:40;;;;;;;11.03;4.83;;;;;;;1.97;47.49;101238.72;6027315;28;20363;-72
2022/03/13 07:33:35;;;;;;;8.33;4.60;;;;;;;2.12;47.01;101241.41;6027743;28;20504;-71
2022/03/13 07:36:32;;;;;;;11.70;5.10;;;;;;;2.10;46.89;101239.78;6028160;28;20265;-72
2022/03/13 07:39:27;;;;;;;12.13;5.03;;;;;;;2.14;47.00;101238.72;6027333;28;20600;-70
2022/03/13 07:42:23;;;;;;;10.73;5.60;;;;;;;2.38;46.20;101247.91;6029359;28;20080;-75
2022/03/13 07:45:18;;;;;;;12.30;5.30;;;;;;;2.64;45.15;101246.50;6028084;28;20030;-74
2022/03/13 07:48:13;;;;;;;11.90;4.85;;;;;;;2.59;45.38;101245.91;6027105;28;20113;-71
2022/03/13 07:51:09;;;;;;;11.97;4.97;;;;;;;2.95;45.27;101247.38;6027473;28;20038;-73
2022/03/13 07:54:05;;;;;;;9.23;4.20;;;;;;;3.18;43.96;101243.47;6026966;28;20791;-71
2022/03/13 07:57:00;;;;;;;9.73;4.90;;;;;;;3.30;43.27;101244.56;6027664;28;20081;-70
2022/03/13 07:59:56;;;;;;;12.05;5.07;;;;;;;3.59;43.07;101241.94;6027003;28;20417;-71
2022/03/13 08:02:54;;;;;;;13.93;5.60;;;;;;;3.86;42.71;101242.13;6027697;28;20624;-72
2022/03/13 08:05:49;;;;;;;9.50;4.57;;;;;;;3.75;42.22;101241.91;6045797;28;20026;-72
2022/03/13 08:08:44;;;;;;;14.73;5.80;;;;;;;3.68;42.57;101239.72;6024238;28;20128;-75
2022/03/13 08:11:41;;;;;;;9.87;5.33;;;;;;;3.76;41.00;101229.63;6023383;28;20161;-70
2022/03/13 08:14:36;;;;;;;10.27;4.63;;;;;;;3.88;41.89;101240.28;6023723;28;20037;-72
2022/03/13 08:17:31;;;;;;;10.02;4.03;;;;;;;4.18;40.59;101229.72;6034044;28;20109;-72
2022/03/13 08:20:27;;;;;;;10.40;4.37;;;;;;;4.46;39.46;101228.84;6028518;28;20481;-73
2022/03/13 08:23:22;;;;;;;13.63;5.13;;;;;;;4.59;39.53;101235.06;6025511;28;20030;-73
2022/03/13 08:26:18;;;;;;;10.23;4.10;;;;;;;4.98;38.42;101226.44;6045008;28;20065;-71
2022/03/13 08:29:15;;;;;;;11.27;4.82;;;;;;;5.24;37.85;101223.84;6027743;28;20405;-73
2022/03/13 08:32:10;;;;;;;12.27;4.45;;;;;;;5.25;38.41;101208.88;6022471;28;20820;-71
2022/03/13 08:35:07;;;;;;;9.57;4.23;;;;;;;5.47;36.90;101217.06;6022662;28;20049;-70
2022/03/13 08:38:03;;;;;;;10.13;5.20;;;;;;;5.73;36.41;101215.34;6023126;28;20030;-74
2022/03/13 08:40:58;;;;;;;10.10;4.32;;;;;;;5.97;36.14;101214.56;6022857;28;20034;-72
2022/03/13 08:43:53;;;;;;;12.55;4.63;;;;;;;6.03;36.03;101215.09;6023477;28;20046;-73
2022/03/13 08:46:48;;;;;;;12.10;4.90;;;;;;;5.96;36.09;101215.50;6023610;28;20549;-72
2022/03/13 08:49:44;;;;;;;11.20;4.63;;;;;;;6.06;35.49;101214.88;6023322;28;20026;-72
2022/03/13 08:52:39;;;;;;;9.27;4.50;;;;;;;6.28;35.81;101209.78;6023083;28;20045;-72
2022/03/13 08:55:35;;;;;;;11.18;4.38;;;;;;;6.17;34.55;101212.38;6022583;28;20105;-75
2022/03/13 08:58:30;;;;;;;11.07;4.50;;;;;;;6.39;32.62;101196.72;6033279;28;20030;-72
2022/03/13 09:01:25;;;;;;;8.90;4.60;;;;;;;6.64;33.59;101209.00;6046499;28;20053;-71
2022/03/13 09:04:21;;;;;;;12.47;4.80;;;;;;;6.67;33.63;101207.00;6029653;28;20297;-72
2022/03/13 09:07:16;;;;;;;10.63;5.35;;;;;;;6.83;32.84;101201.47;6024157;28;20378;-72
2022/03/13 09:10:12;;;;;;;8.57;3.57;;;;;;;6.90;32.69;101211.47;6022385;28;20465;-72
2022/03/13 09:13:07;;;;;;;10.10;4.93;;;;;;;6.91;32.97;101205.25;6023010;28;20117;-72
2022/03/13 09:16:02;;;;;;;10.77;4.90;;;;;;;6.89;32.17;101216.88;6022113;28;20065;-71
2022/03/13 09:18:59;;;;;;;10.15;5.35;;;;;;;7.35;32.79;101204.66;6037695;28;20029;-72
2022/03/13 09:21:54;;;;;;;10.98;5.13;;;;;;;7.48;31.87;101199.31;6021016;28;20031;-73
2022/03/13 09:24:50;;;;;;;10.00;4.47;;;;;;;7.44;32.02;101209.25;6022670;28;20042;-70
2022/03/13 09:27:47;;;;;;;10.18;4.55;;;;;;;7.48;30.94;101192.22;6022173;28;20042;-73
2022/03/13 09:30:43;;;;;;;11.65;4.47;;;;;;;7.43;31.01;101206.72;6041482;28;20037;-72
2022/03/13 09:33:38;;;;;;;8.77;4.07;;;;;;;7.52;31.73;101195.50;6023043;28;20038;-73
2022/03/13 09:36:36;;;;;;;8.67;4.30;;;;;;;7.58;31.59;101195.03;6022285;28;20034;-73
2022/03/13 09:39:31;;;;;;;9.27;4.38;;;;;;;7.52;31.48;101190.22;6022767;28;20438;-71
2022/03/13 09:42:26;;;;;;;9.60;5.18;;;;;;;7.63;31.67;101182.34;6032862;28;20042;-74
2022/03/13 09:45:22;;;;;;;10.80;4.10;;;;;;;7.69;31.77;101187.97;6046669;28;20168;-73
2022/03/13 09:48:18;;;;;;;11.33;4.53;;;;;;;7.84;32.47;101191.25;6025239;28;20030;-71
2022/03/13 09:51:14;;;;;;;9.48;4.75;;;;;;;7.96;31.02;101187.69;6021927;28;20265;-74
2022/03/13 09:54:09;;;;;;;9.50;4.40;;;;;;;8.17;30.76;101193.97;6019895;28;20598;-72
2022/03/13 09:57:05;;;;;;;9.33;4.37;;;;;;;8.11;30.77;101186.50;6032487;28;20097;-74
2022/03/13 10:00:00;;;;;;;9.68;4.70;;;;;;;8.16;31.23;101191.41;6021999;28;20061;-74
2022/03/13 10:02:56;;;;;;;8.77;4.13;;;;;;;8.37;31.44;101190.63;6021856;28;20481;-72
2022/03/13 10:05:55;;;;;;;9.50;4.55;;;;;;;8.60;30.67;101201.19;6021641;28;20050;-71
2022/03/13 10:08:50;;;;;;;8.95;4.40;;;;;;;8.64;31.24;101200.81;6022000;28;20035;-72
2022/03/13 10:11:46;;;;;;;8.48;4.55;;;;;;;8.54;30.33;101199.03;6021485;28;20034;-74
2022/03/13 10:15:04;;;;;;;8.20;4.47;;;;;;;8.75;31.32;101195.50;6022412;28;20031;-72
2022/03/13 10:18:13;;;;;;;9.20;4.75;;;;;;;9.03;31.41;101196.78;6037972;28;20037;-72
2022/03/13 10:21:11;;;;;;;8.70;3.92;;;;;;;8.90;31.12;101193.47;6020902;28;20390;-73
2022/03/13 10:24:10;;;;;;;14.10;4.95;;;;;;;9.28;31.13;101190.34;6022254;28;20070;-72
2022/03/13 10:27:10;;;;;;;10.02;4.57;;;;;;;9.55;30.50;101191.56;6021515;28;20034;-71
2022/03/13 10:30:09;;;;;;;8.98;4.00;;;;;;;9.56;30.82;101193.25;6021486;28;20038;-72
2022/03/13 10:33:06;;;;;;;11.07;5.35;;;;;;;9.50;30.13;101188.44;6022251;28;20034;-70
2022/03/13 10:36:31;;;;;;;11.95;5.13;;;;;;;9.42;30.59;101201.47;6025940;28;20482;-72
2022/03/13 10:39:26;;;;;;;8.57;4.65;;;;;;;9.62;30.74;101193.69;6026658;28;20065;-72
2022/03/13 10:42:29;;;;;;;10.85;5.05;;;;;;;9.89;31.35;101188.72;6022110;28;20042;-73
2022/03/13 10:45:47;;;;;;;9.82;5.18;;;;;;;10.22;30.69;101185.84;6013669;28;20023;-71
2022/03/13 10:48:43;;;;;;;8.27;4.63;;;;;;;10.36;30.16;101185.50;6013599;28;20037;-73
2022/03/13 10:51:48;;;;;;;10.23;4.88;;;;;;;10.51;30.28;101186.84;6025422;28;20366;-72
2022/03/13 10:54:46;;;;;;;8.25;5.45;;;;;;;10.50;30.03;101184.31;6020419;28;20054;-71
2022/03/13 10:57:53;;;;;;;9.02;4.57;;;;;;;10.41;30.39;101175.34;6030709;28;20035;-74
2022/03/13 11:01:02;;;;;;;14.90;5.15;;;;;;;10.23;30.10;101187.53;6041178;28;20397;-72
2022/03/13 11:04:02;;;;;;;12.40;3.90;;;;;;;10.59;29.58;101172.91;6049280;28;20030;-72
2022/03/13 11:06:58;;;;;;;8.52;4.85;;;;;;;10.51;29.97;101176.25;6038508;28;20057;-72
2022/03/13 11:09:54;;;;;;;13.07;7.68;;;;;;;10.80;30.10;101165.69;6025400;28;20038;-72
2022/03/13 11:12:51;;;;;;;11.38;5.53;;;;;;;11.07;29.92;101162.38;6025203;28;20470;-71
2022/03/13 11:15:47;;;;;;;9.80;4.38;;;;;;;11.13;29.29;101151.22;6023956;28;20085;-69
2022/03/13 11:18:42;;;;;;;9.70;4.50;;;;;;;11.24;29.78;101148.44;6035162;28;20521;-69
2022/03/13 11:21:37;;;;;;;14.07;7.60;;;;;;;10.95;28.93;101142.28;6031633;28;20397;-72
2022/03/13 11:24:34;;;;;;;9.83;4.97;;;;;;;11.09;29.11;101134.72;6039076;28;20039;-73
2022/03/13 11:27:32;;;;;;;8.00;4.53;;;;;;;11.29;29.80;101132.91;6039135;28;20042;-73
2022/03/13 11:30:32;;;;;;;9.38;4.88;;;;;;;11.61;28.61;101125.47;6025024;28;20034;-72
2022/03/13 11:33:36;;;;;;;11.20;5.57;;;;;;;11.34;29.25;101133.34;6029899;28;20068;-74
2022/03/13 11:36:32;;;;;;;9.80;5.38;;;;;;;11.39;29.09;101138.25;6037927;28;20062;-70
2022/03/13 11:39:30;;;;;;;10.98;4.40;;;;;;;11.74;28.99;101115.41;6024270;28;20587;-74
2022/03/13 11:42:25;;;;;;;8.10;5.20;;;;;;;11.84;28.77;101121.56;6024567;28;20097;-70
2022/03/13 11:45:28;;;;;;;8.73;4.30;;;;;;;11.82;28.72;101110.22;6025220;28;20072;-69
2022/03/13 11:48:32;;;;;;;9.68;3.97;;;;;;;12.04;28.90;101110.88;6024444;28;20058;-71
2022/03/13 11:51:29;;;;;;;8.45;4.03;;;;;;;12.00;28.26;101099.69;6024076;28;20466;-71
2022/03/13 11:54:53;;;;;;;9.93;4.68;;;;;;;12.16;28.41;101096.38;6024659;28;20030;-70
2022/03/13 11:57:54;;;;;;;9.52;4.03;;;;;;;12.63;28.06;101089.97;6023952;28;20429;-72
2022/03/13 12:01:05;;;;;;;8.35;4.22;;;;;;;12.54;27.56;101094.38;6023114;28;20517;-72
2022/03/13 12:04:09;;;;;;;9.00;4.18;;;;;;;12.74;27.13;101089.78;6036602;28;20244;-70
2022/03/13 12:07:24;;;;;;;8.60;4.10;;;;;;;12.69;26.71;101089.34;6039546;28;20066;-70
2022/03/13 12:10:43;;;;;;;10.00;4.45;;;;;;;12.23;27.23;101092.19;6025967;28;20085;-70
2022/03/13 12:13:47;;;;;;;11.25;4.30;;;;;;;12.33;27.43;101082.31;6027293;28;20030;-69
2022/03/13 12:16:44;;;;;;;7.25;3.92;;;;;;;11.96;27.01;101086.84;6026860;28;20057;-72
2022/03/13 12:19:40;;;;;;;7.50;3.97;;;;;;;12.17;27.16;101077.66;6040581;28;20037;-73
2022/03/13 12:22:36;;;;;;;8.93;4.68;;;;;;;12.19;26.72;101082.81;6028758;28;20458;-73
2022/03/13 12:25:31;;;;;;;7.75;3.90;;;;;;;12.39;27.25;101074.56;6027256;28;20034;-74
2022/03/13 12:28:33;;;;;;;8.67;3.63;;;;;;;12.34;27.33;101076.00;6026992;28;20115;-69
2022/03/13 12:31:28;;;;;;;9.00;4.32;;;;;;;12.45;26.23;101067.81;6026239;28;20261;-71
2022/03/13 12:34:27;;;;;;;8.00;4.33;;;;;;;12.63;27.06;101076.69;6027086;28;20038;-70
2022/03/13 12:37:26;;;;;;;7.80;4.40;;;;;;;12.90;26.46;101070.47;6026427;28;20034;-71
2022/03/13 12:40:23;;;;;;;8.52;4.38;;;;;;;12.61;25.73;101072.50;6026307;28;20042;-71
2022/03/13 12:43:20;;;;;;;6.32;3.63;;;;;;;12.98;25.75;101067.88;6026849;28;20495;-71
2022/03/13 12:46:17;;;;;;;8.50;4.15;;;;;;;13.19;25.72;101068.41;6031159;28;20033;-71
2022/03/13 12:49:12;;;;;;;7.85;4.40;;;;;;;12.98;25.85;101070.53;6016110;28;20038;-74
2022/03/13 12:52:14;;;;;;;13.05;4.50;;;;;;;12.97;25.41;101072.34;6025952;28;20378;-73
2022/03/13 12:55:10;;;;;;;9.85;5.28;;;;;;;13.00;25.04;101079.19;6026685;28;20084;-71
2022/03/13 12:58:05;;;;;;;8.55;4.10;;;;;;;13.00;24.79;101074.72;6025729;28;20081;-73
2022/03/13 13:01:00;;;;;;;9.27;4.15;;;;;;;13.22;25.05;101077.91;6026018;28;20089;-72
2022/03/13 13:03:56;;;;;;;8.37;4.57;;;;;;;13.03;25.15;101066.41;6025198;28;20469;-71
2022/03/13 13:06:51;;;;;;;8.18;4.10;;;;;;;13.31;24.15;101069.00;6025835;28;20033;-71
2022/03/13 13:09:48;;;;;;;8.50;4.70;;;;;;;13.02;24.99;101050.59;6026397;28;20129;-71
2022/03/13 13:12:44;;;;;;;7.32;4.43;;;;;;;13.30;25.50;101059.34;6025481;28;20037;-73
2022/03/13 13:15:39;;;;;;;7.77;4.63;;;;;;;13.61;25.23;101057.91;6026453;28;20101;-73
2022/03/13 13:18:34;;;;;;;6.95;4.00;;;;;;;13.42;25.32;101058.09;6027943;28;20300;-71
2022/03/13 13:21:40;;;;;;;6.77;4.53;;;;;;;13.28;24.66;101040.03;6044315;28;20034;-72
2022/03/13 13:24:47;;;;;;;6.88;4.05;;;;;;;13.23;25.35;101031.66;6026194;28;20049;-73
2022/03/13 13:27:51;;;;;;;;;;;;;;;13.22;25.22;101045.97;6026188;28;20034;-73
2022/03/13 13:30:54;;;;;;;7.03;3.90;;;;;;;13.28;25.09;101035.53;6025550;28;19905;-75
2022/03/13 13:33:49;;;;;;;7.93;4.05;;;;;;;13.35;25.01;101049.03;6026039;28;20038;-72
2022/03/13 13:36:45;;;;;;;6.57;3.50;;;;;;;13.43;23.97;101046.44;6025869;28;20081;-74
2022/03/13 13:39:40;;;;;;;11.73;5.10;;;;;;;13.59;24.36;101054.53;6041422;28;20021;-74
2022/03/13 13:42:36;;;;;;;6.97;3.55;;;;;;;13.52;25.04;101051.69;6036288;28;20104;-74
2022/03/13 13:45:34;;;;;;;7.72;4.13;;;;;;;13.33;24.32;101059.88;6034661;28;20029;-72